createdAt,value
2018-09-04T00:00:59.302Z,86.40
2018-09-04T00:03:42.938Z,87.00
2018-09-04T00:06:26.601Z,87.70
2018-09-04T00:09:10.313Z,88.10
2018-09-04T00:11:54.008Z,88.60
2018-09-04T00:14:37.644Z,89.00
2018-09-04T00:17:21.314Z,89.50
2018-09-04T00:20:05.249Z,90.00
2018-09-04T00:22:48.820Z,90.30
2018-09-04T00:25:32.444Z,90.40
2018-09-04T00:28:16.134Z,90.50
2018-09-04T00:30:59.771Z,90.80
2018-09-04T00:33:43.456Z,91.10
2018-09-04T00:36:27.102Z,91.20
2018-09-04T00:39:11.405Z,91.50
2018-09-04T00:41:55.082Z,91.60
2018-09-04T00:44:38.723Z,91.80
2018-09-04T00:47:22.429Z,91.80
2018-09-04T00:52:49.595Z,92.30
2018-09-04T00:55:33.237Z,92.40
2018-09-04T00:58:16.940Z,92.50
2018-09-04T01:01:00.626Z,92.60
2018-09-04T01:03:44.285Z,92.80
2018-09-04T01:06:27.982Z,92.90
2018-09-04T01:11:58.762Z,92.90
2018-09-04T01:14:42.522Z,93.00
2018-09-04T01:17:26.417Z,93.10
2018-09-04T01:20:10.044Z,93.10
2018-09-04T01:22:56.825Z,93.20
2018-09-04T01:25:40.470Z,93.40
2018-09-04T01:28:25.900Z,93.70
2018-09-04T01:31:09.530Z,93.70
2018-09-04T01:33:56.099Z,93.80
2018-09-04T01:36:39.762Z,94.20
2018-09-04T01:39:25.260Z,94.20
2018-09-04T01:42:08.952Z,94.20
2018-09-04T01:44:53.901Z,94.30
2018-09-04T01:47:37.568Z,94.30
2018-09-04T01:50:23.599Z,94.30
2018-09-04T01:53:07.208Z,94.40
2018-09-04T01:55:52.433Z,94.50
2018-09-04T02:01:19.804Z,94.60
2018-09-04T02:12:13.449Z,94.80
2018-09-04T02:14:57.085Z,94.70
2018-09-04T02:20:24.972Z,95.00
2018-09-04T02:23:08.655Z,95.30
2018-09-04T02:25:52.341Z,95.60
2018-09-04T02:28:35.987Z,96.00
2018-09-04T02:31:19.602Z,96.30
2018-09-04T02:34:03.298Z,96.80
2018-09-04T02:36:46.921Z,97.10
2018-09-04T02:39:30.554Z,97.50
2018-09-04T02:42:14.206Z,97.70
2018-09-04T02:44:57.830Z,97.90
2018-09-04T02:47:41.516Z,98.10
2018-09-04T02:50:25.143Z,98.30
2018-09-04T02:53:08.798Z,98.50
2018-09-04T02:55:52.448Z,98.70
2018-09-04T02:58:36.117Z,98.70
2018-09-04T03:01:19.807Z,98.70
2018-09-04T03:04:03.423Z,98.60
2018-09-04T03:06:47.125Z,98.60
2018-09-04T03:09:30.764Z,98.60
2018-09-04T03:12:14.403Z,98.70
2018-09-04T03:14:58.034Z,98.50
2018-09-04T03:17:41.677Z,98.50
2018-09-04T03:20:25.362Z,98.60
2018-09-04T03:23:09.103Z,98.60
2018-09-04T03:25:52.670Z,98.60
2018-09-04T03:28:36.408Z,98.80
2018-09-04T03:31:20.164Z,98.90
2018-09-04T03:34:03.829Z,99.10
2018-09-04T03:39:30.796Z,99.40
2018-09-04T03:42:14.522Z,99.50
2018-09-04T03:44:58.113Z,99.60
2018-09-04T03:47:41.847Z,99.70
2018-09-04T03:50:25.465Z,99.80
2018-09-04T03:53:09.241Z,99.90
2018-09-04T03:55:52.849Z,99.90
2018-09-04T04:01:19.833Z,99.90
2018-09-04T04:04:04.488Z,99.90
2018-09-04T04:06:48.115Z,99.90
2018-09-04T04:09:31.774Z,99.90
2018-09-04T04:12:15.378Z,99.90
2018-09-04T04:14:59.033Z,99.90
2018-09-04T04:17:42.673Z,99.90
2018-09-04T04:20:26.389Z,99.90
2018-09-04T04:28:36.691Z,99.90
2018-09-04T04:36:46.998Z,99.90
2018-09-04T04:39:30.687Z,99.90
2018-09-04T04:44:58.630Z,99.90
2018-09-04T04:50:30.581Z,99.90
2018-09-04T04:53:14.216Z,99.90
2018-09-04T04:55:58.514Z,99.90
2018-09-04T05:04:09.570Z,99.90
2018-09-04T05:09:36.547Z,99.90
2018-09-04T05:12:20.594Z,99.90
2018-09-04T05:20:30.982Z,99.90
2018-09-04T05:25:57.961Z,99.90
2018-09-04T05:28:41.591Z,99.90
2018-09-04T05:31:25.422Z,99.90
2018-09-04T05:36:52.466Z,99.90
2018-09-04T05:50:43.214Z,99.90
2018-09-04T05:53:26.863Z,99.90
2018-09-04T06:07:04.044Z,90.70
2018-09-04T06:09:47.668Z,85.10
2018-09-04T06:12:31.339Z,79.90
2018-09-04T06:15:14.924Z,75.70
2018-09-04T06:17:58.560Z,73.10
2018-09-04T06:20:42.198Z,69.20
2018-09-04T06:23:25.838Z,67.50
2018-09-04T06:26:09.748Z,62.00
2018-09-04T06:28:53.360Z,61.80
2018-09-04T06:31:36.967Z,59.20
2018-09-04T06:34:20.604Z,56.50
2018-09-04T06:37:04.271Z,54.60
2018-09-04T06:39:47.923Z,52.80
2018-09-04T06:42:31.598Z,52.00
2018-09-04T06:45:15.274Z,51.10
2018-09-04T06:47:58.893Z,49.30
2018-09-04T06:50:42.776Z,48.20
2018-09-04T06:53:26.472Z,47.40
2018-09-04T06:56:10.103Z,46.90
2018-09-04T06:58:53.946Z,45.80
2018-09-04T07:01:37.578Z,43.90
2018-09-04T07:04:21.219Z,43.10
2018-09-04T07:07:04.901Z,42.70
2018-09-04T07:09:48.536Z,42.40
2018-09-04T07:12:32.129Z,40.90
2018-09-04T07:15:15.748Z,40.30
2018-09-04T07:17:59.398Z,38.90
2018-09-04T07:23:30.158Z,37.70
2018-09-04T07:26:13.782Z,38.00
2018-09-04T07:28:57.412Z,37.90
2018-09-04T07:34:25.060Z,35.90
2018-09-04T07:37:08.757Z,35.90
2018-09-04T07:39:52.438Z,33.30
2018-09-04T07:42:36.073Z,32.10
2018-09-04T07:45:19.711Z,31.60
2018-09-04T07:48:03.407Z,31.30
2018-09-04T07:50:47.017Z,30.20
2018-09-04T07:56:14.595Z,29.00
2018-09-04T07:58:58.340Z,28.80
2018-09-04T08:01:42.065Z,28.70
2018-09-04T08:04:25.794Z,28.30
2018-09-04T08:07:09.457Z,28.30
2018-09-04T08:09:53.117Z,27.80
2018-09-04T08:12:36.791Z,27.10
2018-09-04T08:15:20.838Z,26.00
2018-09-04T08:18:04.529Z,25.80
2018-09-04T08:20:48.200Z,25.60
2018-09-04T08:23:31.835Z,25.50
2018-09-04T08:26:15.546Z,25.20
2018-09-04T08:28:59.114Z,24.80
2018-09-04T08:31:42.780Z,24.60
2018-09-04T08:34:26.428Z,24.20
2018-09-04T08:37:10.037Z,23.70
2018-09-04T08:39:53.785Z,23.50
2018-09-04T08:42:37.335Z,23.00
2018-09-04T08:45:21.002Z,22.90
2018-09-04T08:48:08.913Z,22.30
2018-09-04T08:50:52.506Z,21.90
2018-09-04T08:53:36.173Z,21.50
2018-09-04T08:56:19.755Z,21.30
2018-09-04T08:59:03.388Z,21.10
2018-09-04T09:01:47.923Z,20.60
2018-09-04T09:04:31.557Z,20.30
2018-09-04T09:07:15.235Z,19.90
2018-09-04T09:09:58.892Z,19.80
2018-09-04T09:12:42.517Z,19.90
2018-09-04T09:15:26.155Z,19.70
2018-09-04T09:18:09.838Z,19.60
2018-09-04T09:23:37.021Z,17.00
2018-09-04T09:26:20.683Z,18.50
2018-09-04T09:29:04.393Z,19.40
2018-09-04T09:34:31.402Z,18.90
2018-09-04T09:37:15.034Z,18.90
2018-09-04T09:39:58.669Z,18.80
2018-09-04T09:42:42.287Z,18.90
2018-09-04T09:48:12.632Z,18.50
2018-09-04T09:50:56.985Z,18.30
2018-09-04T09:56:24.434Z,18.40
2018-09-04T09:59:08.016Z,18.10
2018-09-04T10:01:57.139Z,18.20
2018-09-04T10:04:41.502Z,18.30
2018-09-04T10:07:26.130Z,18.20
2018-09-04T10:10:09.815Z,18.40
2018-09-04T10:12:53.413Z,18.40
2018-09-04T10:15:37.068Z,18.70
2018-09-04T10:18:20.690Z,19.10
2018-09-04T10:21:04.383Z,19.10
2018-09-04T10:23:48.018Z,19.50
2018-09-04T10:26:31.639Z,19.40
2018-09-04T10:31:58.528Z,20.00
2018-09-04T10:37:25.589Z,20.30
2018-09-04T10:40:14.720Z,20.50
2018-09-04T10:42:58.340Z,20.60
2018-09-04T10:45:47.545Z,21.10
2018-09-04T10:48:31.275Z,21.50
2018-09-04T10:51:14.944Z,22.00
2018-09-04T10:53:58.559Z,22.40
2018-09-04T10:56:42.205Z,22.20
2018-09-04T11:02:09.466Z,22.40
2018-09-04T11:04:53.082Z,23.00
2018-09-04T11:10:20.085Z,24.00
2018-09-04T11:21:13.796Z,25.00
2018-09-04T11:23:57.465Z,25.30
2018-09-04T11:26:41.053Z,25.60
2018-09-04T11:29:24.732Z,25.80
2018-09-04T11:32:08.384Z,26.20
2018-09-04T11:34:52.066Z,27.00
2018-09-04T11:37:35.747Z,27.40
2018-09-04T11:40:19.367Z,27.90
2018-09-04T11:43:03.134Z,27.90
2018-09-04T11:45:46.819Z,27.90
2018-09-04T11:48:30.489Z,27.80
2018-09-04T11:51:14.144Z,27.70
2018-09-04T11:53:57.771Z,28.00
2018-09-04T11:59:24.843Z,28.90
2018-09-04T12:02:14.846Z,28.90
2018-09-04T12:04:58.497Z,29.20
2018-09-04T12:07:42.070Z,29.20
2018-09-04T12:10:25.729Z,29.30
2018-09-04T12:13:09.329Z,29.40
2018-09-04T12:15:53.045Z,29.20
2018-09-04T12:21:19.996Z,30.80
2018-09-04T12:24:03.617Z,31.00
2018-09-04T12:26:47.278Z,31.10
2018-09-04T12:29:30.871Z,31.80
2018-09-04T12:32:14.553Z,32.10
2018-09-04T12:34:58.191Z,32.00
2018-09-04T12:37:41.853Z,31.70
2018-09-04T12:40:25.506Z,31.70
2018-09-04T12:45:53.628Z,32.40
2018-09-04T12:54:04.094Z,33.10
2018-09-04T12:56:47.784Z,32.60
2018-09-04T12:59:31.414Z,32.90
2018-09-04T13:02:15.169Z,33.20
2018-09-04T13:04:58.776Z,32.50
2018-09-04T13:07:42.423Z,32.00
2018-09-04T13:10:26.077Z,32.20
2018-09-04T13:18:37.992Z,32.20
2018-09-04T13:21:21.645Z,32.30
2018-09-04T13:24:05.286Z,32.70
2018-09-04T13:26:48.912Z,32.70
2018-09-04T13:29:32.553Z,32.90
2018-09-04T13:32:16.178Z,32.90
2018-09-04T13:34:59.820Z,31.90
2018-09-04T13:37:43.434Z,33.10
2018-09-04T13:40:27.072Z,33.60
2018-09-04T13:43:10.708Z,33.30
2018-09-04T13:45:54.294Z,34.20
2018-09-04T13:48:37.982Z,34.00
2018-09-04T13:51:21.564Z,35.20
2018-09-04T13:54:05.219Z,36.20
2018-09-04T13:56:48.886Z,35.70
2018-09-04T13:59:32.519Z,36.00
2018-09-04T14:02:16.169Z,35.60
2018-09-04T14:04:59.812Z,35.50
2018-09-04T14:07:43.443Z,35.30
2018-09-04T14:13:10.681Z,34.80
2018-09-04T14:18:40.174Z,35.70
2018-09-04T14:21:24.294Z,35.90
2018-09-04T14:24:07.923Z,35.90
2018-09-04T14:26:51.744Z,36.20
2018-09-04T14:32:18.681Z,36.70
2018-09-04T14:37:45.645Z,36.50
2018-09-04T14:40:29.280Z,36.60
2018-09-04T14:43:12.890Z,37.30
2018-09-04T14:48:40.281Z,37.50
2018-09-04T14:51:23.922Z,37.20
2018-09-04T14:54:07.554Z,37.80
2018-09-04T14:56:51.230Z,38.20
2018-09-04T14:59:34.822Z,38.50
2018-09-04T15:02:18.504Z,38.10
2018-09-04T15:05:02.123Z,38.40
2018-09-04T15:10:29.087Z,39.20
2018-09-04T15:13:12.711Z,39.50
2018-09-04T15:18:40.087Z,40.20
2018-09-04T15:21:23.721Z,40.60
2018-09-04T15:24:07.365Z,41.40
2018-09-04T15:26:51.001Z,41.60
2018-09-04T15:29:34.621Z,41.10
2018-09-04T15:32:18.273Z,41.10
2018-09-04T15:37:45.301Z,41.00
2018-09-04T15:40:28.965Z,41.30
2018-09-04T15:43:13.343Z,41.30
2018-09-04T15:45:57.196Z,41.90
2018-09-04T15:48:40.816Z,42.10
2018-09-04T15:51:25.139Z,41.60
2018-09-04T15:54:08.703Z,41.70
2018-09-04T15:56:52.393Z,41.50
2018-09-04T15:59:35.958Z,41.80
2018-09-04T16:02:19.627Z,42.30
2018-09-04T16:05:03.312Z,42.10
2018-09-04T16:07:46.977Z,42.00
2018-09-04T16:10:30.655Z,42.10
2018-09-04T16:13:14.314Z,41.80
2018-09-04T16:18:41.316Z,41.80
2018-09-04T16:21:24.921Z,42.20
2018-09-04T16:24:08.572Z,45.20
2018-09-04T16:26:52.183Z,42.80
2018-09-04T16:29:35.820Z,42.80
2018-09-04T16:32:19.453Z,42.80
2018-09-04T16:35:03.105Z,42.80
2018-09-04T16:37:47.494Z,42.80
2018-09-04T16:40:35.687Z,43.60
2018-09-04T16:51:35.325Z,43.60
2018-09-04T16:54:19.407Z,44.20
2018-09-04T16:57:03.019Z,44.20
2018-09-04T16:59:46.678Z,44.30
2018-09-04T17:02:30.720Z,44.60
2018-09-04T17:05:14.418Z,44.60
2018-09-04T17:10:41.410Z,45.60
2018-09-04T17:13:25.022Z,46.00
2018-09-04T17:16:08.710Z,46.40
2018-09-04T17:18:52.774Z,46.40
2018-09-04T17:24:19.796Z,47.10
2018-09-04T17:27:03.437Z,47.70
2018-09-04T17:32:31.570Z,48.30
2018-09-04T17:37:58.573Z,48.80
2018-09-04T17:43:26.171Z,49.70
2018-09-04T17:46:09.810Z,49.50
2018-09-04T17:48:53.476Z,50.20
2018-09-04T17:51:37.067Z,50.20
2018-09-04T17:54:20.694Z,50.40
2018-09-04T18:08:26.523Z,51.10
2018-09-04T18:11:10.189Z,51.80
2018-09-04T18:13:53.809Z,51.90
2018-09-04T18:16:37.475Z,52.30
2018-09-04T18:19:21.202Z,52.70
2018-09-04T18:22:04.912Z,52.80
2018-09-04T18:30:15.340Z,53.20
2018-09-04T18:35:44.039Z,53.70
2018-09-04T18:38:28.958Z,54.10
2018-09-04T18:41:12.665Z,54.20
2018-09-04T18:46:42.025Z,54.70
2018-09-04T18:49:25.676Z,54.40
2018-09-04T18:54:52.665Z,54.80
2018-09-04T19:03:04.865Z,55.50
2018-09-04T19:16:43.656Z,56.20
2018-09-04T19:19:27.967Z,56.40
2018-09-04T19:24:55.379Z,56.60
2018-09-04T19:30:22.610Z,56.60
2018-09-04T19:35:49.784Z,57.30
2018-09-04T20:00:22.362Z,56.90
2018-09-04T20:05:49.627Z,56.90
2018-09-04T20:19:27.534Z,56.50
2018-09-04T20:24:56.732Z,57.00
2018-09-04T20:27:40.419Z,56.60
2018-09-04T20:30:24.557Z,56.80
2018-09-04T20:35:54.840Z,57.00
2018-09-04T20:44:06.664Z,57.20
2018-09-04T20:49:33.626Z,57.50
2018-09-04T20:55:00.576Z,57.30
2018-09-04T21:00:44.650Z,57.60
2018-09-04T21:03:39.788Z,57.40
2018-09-04T21:09:21.257Z,57.50
2018-09-04T21:12:04.868Z,57.80
2018-09-04T21:17:31.830Z,57.30
2018-09-04T21:20:15.462Z,58.10
2018-09-04T21:22:59.369Z,58.40
2018-09-04T21:25:43.008Z,58.30
2018-09-04T21:28:26.682Z,58.60
2018-09-04T21:31:10.369Z,58.50
2018-09-04T21:33:54.006Z,58.80
2018-09-04T21:36:37.648Z,58.80
2018-09-04T21:39:21.243Z,58.90
2018-09-04T21:42:04.863Z,58.90
2018-09-04T21:44:48.567Z,58.80
2018-09-04T21:47:32.779Z,58.80
2018-09-04T21:50:16.441Z,59.10
2018-09-04T21:53:00.089Z,59.30
2018-09-04T21:55:43.702Z,59.50
2018-09-04T21:58:27.318Z,59.60
2018-09-04T22:01:11.019Z,59.90
2018-09-04T22:03:54.675Z,60.10
2018-09-04T22:06:38.305Z,60.30
2018-09-04T22:09:21.927Z,60.50
2018-09-04T22:12:07.584Z,60.60
2018-09-04T22:14:51.221Z,60.70
2018-09-04T22:17:36.433Z,60.90
2018-09-04T22:20:20.129Z,60.90
2018-09-04T22:23:03.736Z,61.00
2018-09-04T22:25:47.390Z,61.30
2018-09-04T22:28:31.023Z,61.50
2018-09-04T22:31:14.641Z,61.70
2018-09-04T22:33:58.748Z,62.00
2018-09-04T22:36:42.345Z,62.10
2018-09-04T22:39:25.975Z,62.10
2018-09-04T22:42:09.614Z,62.40
2018-09-04T22:44:53.349Z,62.50
2018-09-04T22:47:37.041Z,62.70
2018-09-04T22:50:26.067Z,62.80
2018-09-04T22:53:09.712Z,63.00
2018-09-04T22:55:59.860Z,62.90
2018-09-04T22:58:44.629Z,63.00
2018-09-04T23:01:28.252Z,63.20
2018-09-04T23:04:11.917Z,63.80
2018-09-04T23:09:40.724Z,63.80
2018-09-04T23:12:24.415Z,64.10
2018-09-04T23:15:08.130Z,63.90
2018-09-04T23:17:51.807Z,64.30
2018-09-04T23:20:36.161Z,64.50
2018-09-04T23:23:19.851Z,64.70
2018-09-04T23:26:03.481Z,64.60
2018-09-04T23:28:47.116Z,64.90
2018-09-04T23:31:30.791Z,65.20
2018-09-04T23:34:14.448Z,65.30
2018-09-04T23:36:58.093Z,65.60
2018-09-04T23:42:33.048Z,65.70
2018-09-04T23:45:16.762Z,65.70
2018-09-04T23:48:00.427Z,66.00
2018-09-04T23:50:44.124Z,66.00
2018-09-04T23:56:11.191Z,66.40
2018-09-04T23:58:54.810Z,66.30
